sensor_id;sensor_type;location;lat;lon;timestamp;pressure;altitude;pressure_sealevel;temperature;humidity
75629;BME280;64213;46.452;16.994;2023-02-28T00:00:04;100970.88;;;-0.07;89.99
75629;BME280;64213;46.452;16.994;2023-02-28T00:03:12;100974.34;;;-0.05;90.00
75629;BME280;64213;46.452;16.994;2023-02-28T00:06:15;100979.56;;;-0.05;90.37
75629;BME280;64213;46.452;16.994;2023-02-28T00:09:17;100985.59;;;-0.05;89.92
75629;BME280;64213;46.452;16.994;2023-02-28T00:12:20;100988.22;;;-0.03;90.39
75629;BME280;64213;46.452;16.994;2023-02-28T00:15:22;100995.12;;;0.01;90.00
75629;BME280;64213;46.452;16.994;2023-02-28T00:18:25;100996.00;;;0.00;90.11
75629;BME280;64213;46.452;16.994;2023-02-28T00:21:27;100998.63;;;-0.03;89.72
75629;BME280;64213;46.452;16.994;2023-02-28T00:24:30;101002.06;;;-0.04;89.85
75629;BME280;64213;46.452;16.994;2023-02-28T00:27:33;101001.22;;;-0.03;89.61
75629;BME280;64213;46.452;16.994;2023-02-28T00:30:35;100997.75;;;-0.05;89.30
75629;BME280;64213;46.452;16.994;2023-02-28T00:33:37;101003.84;;;-0.06;89.20
75629;BME280;64213;46.452;16.994;2023-02-28T00:36:39;101009.03;;;-0.06;89.33
75629;BME280;64213;46.452;16.994;2023-02-28T00:39:45;101008.16;;;-0.10;89.38
75629;BME280;64213;46.452;16.994;2023-02-28T00:42:47;101006.44;;;-0.11;89.82
75629;BME280;64213;46.452;16.994;2023-02-28T00:45:49;101001.22;;;-0.06;89.75
75629;BME280;64213;46.452;16.994;2023-02-28T00:48:52;101002.13;;;-0.13;89.52
75629;BME280;64213;46.452;16.994;2023-02-28T00:51:55;100994.31;;;-0.12;89.97
75629;BME280;64213;46.452;16.994;2023-02-28T00:54:57;100989.97;;;-0.08;89.58
75629;BME280;64213;46.452;16.994;2023-02-28T00:57:59;100989.97;;;-0.11;89.54
75629;BME280;64213;46.452;16.994;2023-02-28T01:01:02;100990.81;;;-0.08;89.42
75629;BME280;64213;46.452;16.994;2023-02-28T01:04:05;100992.56;;;-0.08;89.06
75629;BME280;64213;46.452;16.994;2023-02-28T01:07:07;100989.09;;;-0.10;88.99
75629;BME280;64213;46.452;16.994;2023-02-28T01:10:10;100989.94;;;-0.07;88.79
75629;BME280;64213;46.452;16.994;2023-02-28T01:13:14;100990.81;;;-0.03;88.91
75629;BME280;64213;46.452;16.994;2023-02-28T01:16:17;100988.22;;;-0.03;88.90
75629;BME280;64213;46.452;16.994;2023-02-28T01:19:19;100996.00;;;-0.02;88.68
75629;BME280;64213;46.452;16.994;2023-02-28T01:22:22;100999.47;;;0.01;88.42
75629;BME280;64213;46.452;16.994;2023-02-28T01:25:24;100996.00;;;0.00;88.74
75629;BME280;64213;46.452;16.994;2023-02-28T01:28:26;100996.00;;;0.00;88.55
75629;BME280;64213;46.452;16.994;2023-02-28T01:31:29;101002.03;;;0.02;88.72
75629;BME280;64213;46.452;16.994;2023-02-28T01:34:32;100995.16;;;-0.05;88.86
75629;BME280;64213;46.452;16.994;2023-02-28T01:37:34;100992.53;;;-0.02;88.75
75629;BME280;64213;46.452;16.994;2023-02-28T01:40:36;100992.50;;;0.04;88.75
75629;BME280;64213;46.452;16.994;2023-02-28T01:46:46;100995.97;;;0.03;88.60
75629;BME280;64213;46.452;16.994;2023-02-28T01:49:50;100995.09;;;0.04;88.62
75629;BME280;64213;46.452;16.994;2023-02-28T01:52:56;100995.12;;;0.01;88.24
75629;BME280;64213;46.452;16.994;2023-02-28T01:56:01;100993.34;;;0.06;88.27
75629;BME280;64213;46.452;16.994;2023-02-28T01:59:05;100992.50;;;0.07;88.12
75629;BME280;64213;46.452;16.994;2023-02-28T02:02:07;100995.94;;;0.11;88.07
75629;BME280;64213;46.452;16.994;2023-02-28T02:05:13;100992.50;;;0.07;88.26
75629;BME280;64213;46.452;16.994;2023-02-28T02:08:28;100989.91;;;0.04;88.04
75629;BME280;64213;46.452;16.994;2023-02-28T02:11:30;100977.81;;;0.00;87.95
75629;BME280;64213;46.452;16.994;2023-02-28T02:14:51;100978.63;;;0.07;87.88
75629;BME280;64213;46.452;16.994;2023-02-28T02:17:59;100981.22;;;0.05;87.94
75629;BME280;64213;46.452;16.994;2023-02-28T02:21:37;100982.94;;;0.06;87.65
75629;BME280;64213;46.452;16.994;2023-02-28T02:35:50;100980.41;;;0.00;87.81
75629;BME280;64213;46.452;16.994;2023-02-28T02:42:13;100979.53;;;0.01;88.17
75629;BME280;64213;46.452;16.994;2023-02-28T02:45:21;100976.91;;;0.01;87.78
75629;BME280;64213;46.452;16.994;2023-02-28T02:48:30;100968.28;;;-0.03;88.55
75629;BME280;64213;46.452;16.994;2023-02-28T02:51:35;100973.44;;;-0.01;88.15
75629;BME280;64213;46.452;16.994;2023-02-28T02:54:41;100970.03;;;-0.06;88.35
75629;BME280;64213;46.452;16.994;2023-02-28T02:57:59;100976.06;;;-0.04;88.10
75629;BME280;64213;46.452;16.994;2023-02-28T03:01:03;100972.63;;;-0.03;88.15
75629;BME280;64213;46.452;16.994;2023-02-28T03:04:18;100979.53;;;0.01;88.51
75629;BME280;64213;46.452;16.994;2023-02-28T03:07:21;100976.06;;;-0.01;88.71
75629;BME280;64213;46.452;16.994;2023-02-28T03:10:29;100969.13;;;0.01;89.22
75629;BME280;64213;46.452;16.994;2023-02-28T03:20:32;100990.75;;;0.05;88.86
75629;BME280;64213;46.452;16.994;2023-02-28T03:27:12;100995.97;;;0.03;89.10
75629;BME280;64213;46.452;16.994;2023-02-28T03:34:19;100993.34;;;0.03;89.47
75629;BME280;64213;46.452;16.994;2023-02-28T03:37:05;101004.62;;;0.05;89.57
75629;BME280;64213;46.452;16.994;2023-02-28T03:40:14;101008.97;;;0.02;89.32
75629;BME280;64213;46.452;16.994;2023-02-28T03:43:23;101000.31;;;-0.01;89.43
75629;BME280;64213;46.452;16.994;2023-02-28T03:46:30;100998.59;;;0.00;89.60
75629;BME280;64213;46.452;16.994;2023-02-28T03:49:40;100999.44;;;0.04;89.77
75629;BME280;64213;46.452;16.994;2023-02-28T03:52:53;100989.06;;;-0.01;90.11
75629;BME280;64213;46.452;16.994;2023-02-28T03:59:32;101012.41;;;0.08;90.37
75629;BME280;64213;46.452;16.994;2023-02-28T04:02:36;101018.50;;;0.06;90.26
75629;BME280;64213;46.452;16.994;2023-02-28T04:05:52;101012.44;;;0.07;90.56
75629;BME280;64213;46.452;16.994;2023-02-28T04:08:55;101015.00;;;0.08;90.21
75629;BME280;64213;46.452;16.994;2023-02-28T04:11:57;101016.72;;;0.12;91.12
75629;BME280;64213;46.452;16.994;2023-02-28T04:14:59;101015.00;;;0.08;90.85
75629;BME280;64213;46.452;16.994;2023-02-28T04:18:02;101012.41;;;0.08;90.60
75629;BME280;64213;46.452;16.994;2023-02-28T04:21:05;101015.88;;;0.09;90.79
75629;BME280;64213;46.452;16.994;2023-02-28T04:24:09;101010.69;;;0.07;90.80
75629;BME280;64213;46.452;16.994;2023-02-28T04:27:16;101011.56;;;0.08;91.22
75629;BME280;64213;46.452;16.994;2023-02-28T04:30:18;101015.03;;;0.10;91.24
75629;BME280;64213;46.452;16.994;2023-02-28T04:33:20;101015.84;;;0.15;91.92
75629;BME280;64213;46.452;16.994;2023-02-28T04:36:22;101003.72;;;0.12;91.12
75629;BME280;64213;46.452;16.994;2023-02-28T04:39:25;101012.41;;;0.11;91.13
75629;BME280;64213;46.452;16.994;2023-02-28T04:42:27;101017.59;;;0.11;91.12
75629;BME280;64213;46.452;16.994;2023-02-28T04:45:29;101013.25;;;0.12;91.32
75629;BME280;64213;46.452;16.994;2023-02-28T04:48:36;101015.84;;;0.12;91.44
75629;BME280;64213;46.452;16.994;2023-02-28T04:51:39;101015.88;;;0.13;91.90
75629;BME280;64213;46.452;16.994;2023-02-28T04:54:41;101015.88;;;0.09;91.65
75629;BME280;64213;46.452;16.994;2023-02-28T04:57:44;101013.25;;;0.12;91.86
75629;BME280;64213;46.452;16.994;2023-02-28T05:00:46;101016.72;;;0.09;92.16
75629;BME280;64213;46.452;16.994;2023-02-28T05:03:49;101009.78;;;0.11;92.21
75629;BME280;64213;46.452;16.994;2023-02-28T05:06:51;101017.59;;;0.14;92.34
75629;BME280;64213;46.452;16.994;2023-02-28T05:09:53;101020.25;;;0.07;91.95
75629;BME280;64213;46.452;16.994;2023-02-28T05:12:55;101025.44;;;0.07;92.07
75629;BME280;64213;46.452;16.994;2023-02-28T05:15:57;101023.69;;;0.07;92.35
75629;BME280;64213;46.452;16.994;2023-02-28T05:19:00;101036.69;;;0.06;92.29
75629;BME280;64213;46.452;16.994;2023-02-28T05:22:02;101028.91;;;0.06;92.20
75629;BME280;64213;46.452;16.994;2023-02-28T05:25:04;101035.88;;;0.04;92.15
75629;BME280;64213;46.452;16.994;2023-02-28T05:28:07;101031.56;;;-0.08;92.60
75629;BME280;64213;46.452;16.994;2023-02-28T05:31:12;101043.69;;;-0.03;92.29
75629;BME280;64213;46.452;16.994;2023-02-28T05:34:14;101041.97;;;-0.05;92.71
75629;BME280;64213;46.452;16.994;2023-02-28T05:37:17;101048.00;;;-0.02;92.85
75629;BME280;64213;46.452;16.994;2023-02-28T05:40:19;101057.53;;;-0.01;92.71
75629;BME280;64213;46.452;16.994;2023-02-28T05:43:22;101058.41;;;-0.02;92.92
75629;BME280;64213;46.452;16.994;2023-02-28T05:46:25;101050.63;;;-0.05;92.81
75629;BME280;64213;46.452;16.994;2023-02-28T05:49:27;101060.13;;;-0.01;92.81
75629;BME280;64213;46.452;16.994;2023-02-28T05:52:29;101067.94;;;0.04;92.64
75629;BME280;64213;46.452;16.994;2023-02-28T05:55:31;101069.69;;;-0.03;92.68
75629;BME280;64213;46.452;16.994;2023-02-28T05:58:34;101069.69;;;0.04;92.84
75629;BME280;64213;46.452;16.994;2023-02-28T06:01:38;101071.37;;;0.06;92.64
75629;BME280;64213;46.452;16.994;2023-02-28T06:04:42;101074.00;;;0.02;92.85
75629;BME280;64213;46.452;16.994;2023-02-28T06:07:44;101069.66;;;0.10;92.62
75629;BME280;64213;46.452;16.994;2023-02-28T06:10:46;101085.25;;;0.11;92.10
75629;BME280;64213;46.452;16.994;2023-02-28T06:13:49;101071.34;;;0.17;92.15
75629;BME280;64213;46.452;16.994;2023-02-28T06:16:52;101079.16;;;0.17;92.06
75629;BME280;64213;46.452;16.994;2023-02-28T06:19:54;101078.28;;;0.16;91.89
75629;BME280;64213;46.452;16.994;2023-02-28T06:22:56;101085.19;;;0.19;91.50
75629;BME280;64213;46.452;16.994;2023-02-28T06:26:00;101089.53;;;0.20;91.24
75629;BME280;64213;46.452;16.994;2023-02-28T06:29:02;101097.31;;;0.26;91.19
75629;BME280;64213;46.452;16.994;2023-02-28T06:32:05;101086.00;;;0.33;90.86
75629;BME280;64213;46.452;16.994;2023-02-28T06:35:07;101098.09;;;0.40;90.68
75629;BME280;64213;46.452;16.994;2023-02-28T06:38:09;101102.41;;;0.44;90.55
75629;BME280;64213;46.452;16.994;2023-02-28T06:41:12;101098.91;;;0.50;90.24
75629;BME280;64213;46.452;16.994;2023-02-28T06:44:17;101104.16;;;0.44;89.80
75629;BME280;64213;46.452;16.994;2023-02-28T06:47:20;101102.38;;;0.52;89.72
75629;BME280;64213;46.452;16.994;2023-02-28T06:50:22;101110.22;;;0.49;88.91
75629;BME280;64213;46.452;16.994;2023-02-28T06:53:24;101108.50;;;0.45;88.68
75629;BME280;64213;46.452;16.994;2023-02-28T06:56:26;101116.22;;;0.54;88.97
75629;BME280;64213;46.452;16.994;2023-02-28T06:59:28;101118.78;;;0.63;88.64
75629;BME280;64213;46.452;16.994;2023-02-28T07:02:31;101115.34;;;0.64;88.53
75629;BME280;64213;46.452;16.994;2023-02-28T07:05:37;101116.16;;;0.69;88.07
75629;BME280;64213;46.452;16.994;2023-02-28T07:08:39;101124.84;;;0.68;87.96
75629;BME280;64213;46.452;16.994;2023-02-28T07:11:43;101117.91;;;0.71;87.42
75629;BME280;64213;46.452;16.994;2023-02-28T07:14:45;101124.81;;;0.75;87.91
75629;BME280;64213;46.452;16.994;2023-02-28T07:17:47;101117.78;;;0.83;87.20
75629;BME280;64213;46.452;16.994;2023-02-28T07:20:50;101117.84;;;0.78;86.53
75629;BME280;64213;46.452;16.994;2023-02-28T07:23:52;101117.81;;;0.84;86.81
75629;BME280;64213;46.452;16.994;2023-02-28T07:26:55;101123.03;;;0.80;87.04
75629;BME280;64213;46.452;16.994;2023-02-28T07:29:57;101112.47;;;0.98;86.27
75629;BME280;64213;46.452;16.994;2023-02-28T07:32:59;101117.66;;;1.01;85.62
75629;BME280;64213;46.452;16.994;2023-02-28T07:36:06;101122.84;;;1.09;85.22
75629;BME280;64213;46.452;16.994;2023-02-28T07:39:09;101124.50;;;1.17;85.35
75629;BME280;64213;46.452;16.994;2023-02-28T07:42:11;101121.84;;;1.24;84.31
75629;BME280;64213;46.452;16.994;2023-02-28T07:45:14;101122.69;;;1.26;84.93
75629;BME280;64213;46.452;16.994;2023-02-28T07:48:16;101126.13;;;1.31;84.60
75629;BME280;64213;46.452;16.994;2023-02-28T07:51:18;101128.72;;;1.32;84.28
75629;BME280;64213;46.452;16.994;2023-02-28T07:54:20;101122.47;;;1.53;83.29
75629;BME280;64213;46.452;16.994;2023-02-28T07:57:23;101123.06;;;1.78;82.07
75629;BME280;64213;46.452;16.994;2023-02-28T08:00:25;101129.06;;;1.85;82.30
75629;BME280;64213;46.452;16.994;2023-02-28T08:03:27;101129.75;;;2.01;80.91
75629;BME280;64213;46.452;16.994;2023-02-28T08:06:29;101126.09;;;2.19;80.14
75629;BME280;64213;46.452;16.994;2023-02-28T08:09:32;101128.31;;;2.49;78.83
75629;BME280;64213;46.452;16.994;2023-02-28T08:12:34;101131.97;;;2.96;77.28
75629;BME280;64213;46.452;16.994;2023-02-28T08:15:36;101132.50;;;3.71;73.50
75629;BME280;64213;46.452;16.994;2023-02-28T08:18:38;101124.69;;;4.55;70.32
75629;BME280;64213;46.452;16.994;2023-02-28T08:21:40;101126.03;;;4.74;69.56
75629;BME280;64213;46.452;16.994;2023-02-28T08:24:43;101125.94;;;4.37;70.54
75629;BME280;64213;46.452;16.994;2023-02-28T08:27:45;101129.91;;;4.14;70.47
75629;BME280;64213;46.452;16.994;2023-02-28T08:30:47;101127.81;;;4.72;69.73
75629;BME280;64213;46.452;16.994;2023-02-28T08:33:51;101129.81;;;5.00;67.97
75629;BME280;64213;46.452;16.994;2023-02-28T08:36:54;101132.34;;;5.03;66.47
75629;BME280;64213;46.452;16.994;2023-02-28T08:39:57;101127.72;;;4.75;67.42
75629;BME280;64213;46.452;16.994;2023-02-28T08:42:59;101129.94;;;4.94;64.78
75629;BME280;64213;46.452;16.994;2023-02-28T08:46:02;101127.44;;;5.25;64.47
75629;BME280;64213;46.452;16.994;2023-02-28T08:49:04;101137.63;;;4.62;67.56
75629;BME280;64213;46.452;16.994;2023-02-28T08:52:06;101131.22;;;4.35;67.74
75629;BME280;64213;46.452;16.994;2023-02-28T08:55:09;101129.03;;;4.56;64.98
75629;BME280;64213;46.452;16.994;2023-02-28T08:58:11;101132.94;;;4.38;66.61
75629;BME280;64213;46.452;16.994;2023-02-28T09:04:17;101128.16;;;4.57;63.80
75629;BME280;64213;46.452;16.994;2023-02-28T09:07:21;101130.78;;;4.96;64.74
75629;BME280;64213;46.452;16.994;2023-02-28T09:10:23;101124.56;;;4.61;64.73
75629;BME280;64213;46.452;16.994;2023-02-28T09:13:26;101121.81;;;4.67;62.14
75629;BME280;64213;46.452;16.994;2023-02-28T09:16:30;101129.06;;;4.95;61.06
75629;BME280;64213;46.452;16.994;2023-02-28T09:19:33;101126.59;;;5.24;60.70
75629;BME280;64213;46.452;16.994;2023-02-28T09:22:35;101122.66;;;5.06;59.97
75629;BME280;64213;46.452;16.994;2023-02-28T09:25:44;101123.62;;;5.72;58.63
75629;BME280;64213;46.452;16.994;2023-02-28T09:28:46;101121.37;;;5.91;59.26
75629;BME280;64213;46.452;16.994;2023-02-28T09:31:49;101115.41;;;6.47;56.54
75629;BME280;64213;46.452;16.994;2023-02-28T09:34:51;101120.84;;;6.11;57.79
75629;BME280;64213;46.452;16.994;2023-02-28T09:37:54;101122.25;;;6.23;58.15
75629;BME280;64213;46.452;16.994;2023-02-28T09:41:01;101115.66;;;6.39;57.02
75629;BME280;64213;46.452;16.994;2023-02-28T09:44:07;101107.28;;;5.95;56.69
75629;BME280;64213;46.452;16.994;2023-02-28T09:53:31;101108.59;;;6.69;51.47
75629;BME280;64213;46.452;16.994;2023-02-28T09:56:41;101107.25;;;7.12;50.94
75629;BME280;64213;46.452;16.994;2023-02-28T10:06:20;101100.56;;;6.46;55.58
75629;BME280;64213;46.452;16.994;2023-02-28T10:09:33;101103.88;;;5.90;56.85
75629;BME280;64213;46.452;16.994;2023-02-28T10:12:40;101111.66;;;5.62;57.17
75629;BME280;64213;46.452;16.994;2023-02-28T10:15:47;101115.28;;;5.22;57.94
75629;BME280;64213;46.452;16.994;2023-02-28T10:18:57;101110.00;;;6.22;55.59
75629;BME280;64213;46.452;16.994;2023-02-28T10:22:08;101112.63;;;6.22;54.99
75629;BME280;64213;46.452;16.994;2023-02-28T10:25:22;101116.22;;;5.54;56.39
75629;BME280;64213;46.452;16.994;2023-02-28T10:28:26;101117.16;;;5.17;57.48
75629;BME280;64213;46.452;16.994;2023-02-28T10:31:30;101116.09;;;5.24;57.57
75629;BME280;64213;46.452;16.994;2023-02-28T10:34:32;101110.94;;;5.21;56.94
75629;BME280;64213;46.452;16.994;2023-02-28T10:37:38;101105.94;;;5.79;55.62
75629;BME280;64213;46.452;16.994;2023-02-28T10:40:40;101101.03;;;5.32;55.83
75629;BME280;64213;46.452;16.994;2023-02-28T10:43:43;101092.84;;;6.10;54.67
75629;BME280;64213;46.452;16.994;2023-02-28T10:46:49;101100.38;;;6.52;53.11
75629;BME280;64213;46.452;16.994;2023-02-28T10:49:52;101077.69;;;8.75;48.53
75629;BME280;64213;46.452;16.994;2023-02-28T10:52:55;101073.63;;;9.71;45.68
75629;BME280;64213;46.452;16.994;2023-02-28T10:56:00;101071.72;;;9.75;46.37
75629;BME280;64213;46.452;16.994;2023-02-28T10:59:20;101077.72;;;8.95;44.40
75629;BME280;64213;46.452;16.994;2023-02-28T11:02:36;101069.28;;;9.29;45.79
75629;BME280;64213;46.452;16.994;2023-02-28T11:05:44;101057.03;;;9.88;43.21
75629;BME280;64213;46.452;16.994;2023-02-28T11:08:55;101059.69;;;10.46;44.55
75629;BME280;64213;46.452;16.994;2023-02-28T11:11:58;101058.03;;;9.04;46.00
75629;BME280;64213;46.452;16.994;2023-02-28T11:15:04;101056.19;;;8.40;47.34
75629;BME280;64213;46.452;16.994;2023-02-28T11:21:33;101049.78;;;7.00;50.37
75629;BME280;64213;46.452;16.994;2023-02-28T11:24:44;101043.59;;;7.28;49.33
75629;BME280;64213;46.452;16.994;2023-02-28T11:27:49;101038.09;;;7.34;49.01
75629;BME280;64213;46.452;16.994;2023-02-28T11:34:25;101020.88;;;8.44;45.46
75629;BME280;64213;46.452;16.994;2023-02-28T11:37:29;101028.56;;;8.03;45.84
75629;BME280;64213;46.452;16.994;2023-02-28T11:40:50;101017.59;;;7.92;47.33
75629;BME280;64213;46.452;16.994;2023-02-28T11:47:17;101021.75;;;8.21;46.22
75629;BME280;64213;46.452;16.994;2023-02-28T11:57:56;100996.69;;;9.19;44.41
75629;BME280;64213;46.452;16.994;2023-02-28T12:01:09;101006.94;;;8.84;45.50
75629;BME280;64213;46.452;16.994;2023-02-28T12:04:25;100995.78;;;8.78;44.99
75629;BME280;64213;46.452;16.994;2023-02-28T12:11:05;100999.47;;;6.83;49.96
75629;BME280;64213;46.452;16.994;2023-02-28T12:14:38;100987.22;;;7.58;49.07
75629;BME280;64213;46.452;16.994;2023-02-28T12:21:19;100977.34;;;8.98;44.51
75629;BME280;64213;46.452;16.994;2023-02-28T12:24:55;100976.16;;;8.41;46.27
75629;BME280;64213;46.452;16.994;2023-02-28T12:28:03;100988.69;;;7.17;48.85
75629;BME280;64213;46.452;16.994;2023-02-28T12:31:14;100987.28;;;7.32;48.21
75629;BME280;64213;46.452;16.994;2023-02-28T12:34:26;100980.69;;;7.68;47.49
75629;BME280;64213;46.452;16.994;2023-02-28T12:37:40;100984.00;;;7.50;48.17
75629;BME280;64213;46.452;16.994;2023-02-28T12:40:53;100986.75;;;7.94;47.66
75629;BME280;64213;46.452;16.994;2023-02-28T12:44:07;100976.75;;;8.26;46.34
75629;BME280;64213;46.452;16.994;2023-02-28T12:47:15;100971.00;;;8.60;46.51
75629;BME280;64213;46.452;16.994;2023-02-28T12:50:18;100979.53;;;7.27;49.33
75629;BME280;64213;46.452;16.994;2023-02-28T12:53:29;100978.78;;;7.49;48.51
75629;BME280;64213;46.452;16.994;2023-02-28T12:56:58;100979.22;;;7.11;49.49
75629;BME280;64213;46.452;16.994;2023-02-28T13:00:16;100979.37;;;6.55;50.79
75629;BME280;64213;46.452;16.994;2023-02-28T13:10:23;100958.97;;;8.31;47.12
75629;BME280;64213;46.452;16.994;2023-02-28T13:13:28;100966.91;;;8.75;46.23
75629;BME280;64213;46.452;16.994;2023-02-28T13:20:00;100969.31;;;9.41;44.17
75629;BME280;64213;46.452;16.994;2023-02-28T13:23:02;100964.81;;;10.01;42.71
75629;BME280;64213;46.452;16.994;2023-02-28T13:26:07;100956.19;;;9.78;43.10
75629;BME280;64213;46.452;16.994;2023-02-28T13:32:28;100971.00;;;9.02;45.44
75629;BME280;64213;46.452;16.994;2023-02-28T13:35:37;100963.88;;;8.84;45.61
75629;BME280;64213;46.452;16.994;2023-02-28T13:41:47;100958.28;;;8.26;46.68
75629;BME280;64213;46.452;16.994;2023-02-28T13:48:19;100958.59;;;7.24;48.79
75629;BME280;64213;46.452;16.994;2023-02-28T13:51:39;100959.91;;;7.12;49.47
75629;BME280;64213;46.452;16.994;2023-02-28T13:58:05;100953.09;;;7.07;49.51
75629;BME280;64213;46.452;16.994;2023-02-28T14:01:40;100953.72;;;6.88;50.66
75629;BME280;64213;46.452;16.994;2023-02-28T14:07:53;100953.34;;;6.74;50.01
75629;BME280;64213;46.452;16.994;2023-02-28T14:11:22;100948.03;;;7.01;49.95
75629;BME280;64213;46.452;16.994;2023-02-28T14:17:37;100950.78;;;6.44;51.03
75629;BME280;64213;46.452;16.994;2023-02-28T14:20:40;100947.22;;;6.73;49.95
75629;BME280;64213;46.452;16.994;2023-02-28T14:33:39;100927.38;;;6.90;49.55
75629;BME280;64213;46.452;16.994;2023-02-28T14:36:44;100932.75;;;6.60;49.28
75629;BME280;64213;46.452;16.994;2023-02-28T14:39:48;100931.31;;;6.23;50.36
75629;BME280;64213;46.452;16.994;2023-02-28T14:43:04;100933.56;;;6.08;50.69
75629;BME280;64213;46.452;16.994;2023-02-28T14:46:07;100932.00;;;5.72;50.95
75629;BME280;64213;46.452;16.994;2023-02-28T14:49:20;100934.78;;;5.66;51.48
75629;BME280;64213;46.452;16.994;2023-02-28T14:52:28;100930.06;;;5.77;50.93
75629;BME280;64213;46.452;16.994;2023-02-28T14:55:34;100925.31;;;5.60;51.65
75629;BME280;64213;46.452;16.994;2023-02-28T14:58:37;100923.97;;;5.47;51.72
75629;BME280;64213;46.452;16.994;2023-02-28T15:01:39;100921.50;;;5.43;52.44
75629;BME280;64213;46.452;16.994;2023-02-28T15:04:41;100915.75;;;5.28;52.52
75629;BME280;64213;46.452;16.994;2023-02-28T15:07:45;100925.34;;;5.29;52.95
75629;BME280;64213;46.452;16.994;2023-02-28T15:11:16;100884.87;;;5.38;52.20
75629;BME280;64213;46.452;16.994;2023-02-28T15:14:21;100920.94;;;5.61;52.18
75629;BME280;64213;46.452;16.994;2023-02-28T15:17:24;100923.25;;;5.72;52.16
75629;BME280;64213;46.452;16.994;2023-02-28T15:20:27;100925.16;;;5.67;51.76
75629;BME280;64213;46.452;16.994;2023-02-28T15:23:30;100920.31;;;5.53;52.11
75629;BME280;64213;46.452;16.994;2023-02-28T15:26:38;100921.69;;;5.65;51.72
75629;BME280;64213;46.452;16.994;2023-02-28T15:29:55;100919.13;;;5.33;52.38
75629;BME280;64213;46.452;16.994;2023-02-28T15:36:16;100919.66;;;5.45;52.80
75629;BME280;64213;46.452;16.994;2023-02-28T15:39:25;100933.50;;;5.20;52.93
75629;BME280;64213;46.452;16.994;2023-02-28T15:42:31;100927.06;;;4.98;53.69
75629;BME280;64213;46.452;16.994;2023-02-28T15:48:52;100933.03;;;5.04;53.69
75629;BME280;64213;46.452;16.994;2023-02-28T15:51:58;100928.69;;;5.03;53.74
75629;BME280;64213;46.452;16.994;2023-02-28T15:55:27;100919.31;;;4.95;54.03
75629;BME280;64213;46.452;16.994;2023-02-28T15:58:31;100920.88;;;4.69;54.35
75629;BME280;64213;46.452;16.994;2023-02-28T16:01:37;100914.16;;;4.57;54.59
75629;BME280;64213;46.452;16.994;2023-02-28T16:05:37;100925.44;;;4.59;54.87
75629;BME280;64213;46.452;16.994;2023-02-28T16:08:20;100918.63;;;4.54;55.08
75629;BME280;64213;46.452;16.994;2023-02-28T16:11:23;100915.09;;;4.55;55.06
75629;BME280;64213;46.452;16.994;2023-02-28T16:14:26;100914.09;;;4.60;55.13
75629;BME280;64213;46.452;16.994;2023-02-28T16:17:33;100919.88;;;4.73;54.96
75629;BME280;64213;46.452;16.994;2023-02-28T16:20:36;100917.19;;;4.76;54.98
75629;BME280;64213;46.452;16.994;2023-02-28T16:23:38;100925.03;;;4.76;54.99
75629;BME280;64213;46.452;16.994;2023-02-28T16:26:44;100919.97;;;4.70;55.05
75629;BME280;64213;46.452;16.994;2023-02-28T16:29:48;100934.75;;;4.73;55.35
75629;BME280;64213;46.452;16.994;2023-02-28T16:32:52;100938.37;;;4.67;55.42
75629;BME280;64213;46.452;16.994;2023-02-28T16:35:56;100934.91;;;4.66;55.48
75629;BME280;64213;46.452;16.994;2023-02-28T16:38:58;100939.28;;;4.66;55.49
75629;BME280;64213;46.452;16.994;2023-02-28T16:42:00;100940.44;;;4.54;55.96
75629;BME280;64213;46.452;16.994;2023-02-28T16:45:02;100936.13;;;4.53;56.26
75629;BME280;64213;46.452;16.994;2023-02-28T16:48:05;100936.78;;;4.61;55.91
75629;BME280;64213;46.452;16.994;2023-02-28T16:51:15;100938.00;;;4.47;56.32
75629;BME280;64213;46.452;16.994;2023-02-28T16:54:18;100935.37;;;4.47;56.83
75629;BME280;64213;46.452;16.994;2023-02-28T16:57:22;100944.06;;;4.49;56.69
75629;BME280;64213;46.452;16.994;2023-02-28T17:00:29;100942.16;;;4.55;57.14
75629;BME280;64213;46.452;16.994;2023-02-28T17:03:33;100956.19;;;4.53;56.93
75629;BME280;64213;46.452;16.994;2023-02-28T17:06:35;100970.09;;;4.19;60.54
75629;BME280;64213;46.452;16.994;2023-02-28T17:09:39;100969.25;;;4.18;63.28
75629;BME280;64213;46.452;16.994;2023-02-28T17:12:45;100967.69;;;4.10;64.26
75629;BME280;64213;46.452;16.994;2023-02-28T17:15:50;100960.03;;;4.01;64.61
75629;BME280;64213;46.452;16.994;2023-02-28T17:18:55;100958.59;;;3.87;65.88
75629;BME280;64213;46.452;16.994;2023-02-28T17:21:59;100970.28;;;3.71;66.63
75629;BME280;64213;46.452;16.994;2023-02-28T17:25:03;100964.06;;;3.75;66.45
75629;BME280;64213;46.452;16.994;2023-02-28T17:28:05;100978.12;;;3.71;67.53
75629;BME280;64213;46.452;16.994;2023-02-28T17:31:09;100949.78;;;3.49;67.75
75629;BME280;64213;46.452;16.994;2023-02-28T17:34:13;100973.91;;;3.64;68.14
75629;BME280;64213;46.452;16.994;2023-02-28T17:37:21;100983.53;;;3.62;68.53
75629;BME280;64213;46.452;16.994;2023-02-28T17:40:33;100985.31;;;3.60;69.05
75629;BME280;64213;46.452;16.994;2023-02-28T17:43:37;100989.72;;;3.58;69.12
75629;BME280;64213;46.452;16.994;2023-02-28T17:46:41;100990.53;;;3.60;69.06
75629;BME280;64213;46.452;16.994;2023-02-28T17:49:45;100986.91;;;3.67;68.38
75629;BME280;64213;46.452;16.994;2023-02-28T17:52:55;100979.03;;;3.68;68.16
75629;BME280;64213;46.452;16.994;2023-02-28T17:55:58;100989.53;;;3.67;68.70
75629;BME280;64213;46.452;16.994;2023-02-28T17:59:01;100996.84;;;3.51;69.55
75629;BME280;64213;46.452;16.994;2023-02-28T18:02:03;101000.28;;;3.53;69.63
75629;BME280;64213;46.452;16.994;2023-02-28T18:05:08;100994.19;;;3.53;69.40
75629;BME280;64213;46.452;16.994;2023-02-28T18:08:12;100992.53;;;3.47;69.02